Time;durP1;ratioP1;P1;durP2;ratioP2;P2;SDS_P1;SDS_P2;PMS_P1;PMS_P2;Temp;Humidity;BMP_temperature;BMP_pressure;BME280_temperature;BME280_humidity;BME280_pressure;Samples;Min_cycle;Max_cycle;Signal;HPM_P1;HPM_P2
2023/05/28 00:00:06;;;;;;;15.57;6.80;;;;;;;16.39;67.45;101927.66;5051702;28;20056;-63
2023/05/28 00:02:41;;;;;;;13.57;6.97;;;;;;;16.36;66.83;101919.97;5036807;28;20045;-63
2023/05/28 00:05:09;;;;;;;19.42;7.68;;;;;;;16.24;67.44;101924.97;5052987;28;20405;-63
2023/05/28 00:07:39;;;;;;;14.18;7.00;;;;;;;16.17;67.66;101912.31;5051505;28;20469;-63
2023/05/28 00:10:07;;;;;;;20.17;7.85;;;;;;;16.19;67.94;101912.03;5051730;28;20571;-62
2023/05/28 00:12:35;;;;;;;14.68;7.13;;;;;;;16.17;68.04;101911.50;5035960;28;20102;-63
2023/05/28 00:15:03;;;;;;;18.70;7.32;;;;;;;16.13;67.93;101913.13;5051902;28;20413;-64
2023/05/28 00:17:31;;;;;;;20.25;7.55;;;;;;;16.09;68.12;101907.41;5047129;28;20393;-63
2023/05/28 00:19:59;;;;;;;14.73;6.60;;;;;;;16.12;68.23;101912.31;5049446;28;20053;-64
2023/05/28 00:22:27;;;;;;;19.00;7.15;;;;;;;16.09;68.16;101909.28;5050211;28;20083;-62
2023/05/28 00:24:55;;;;;;;16.27;6.47;;;;;;;16.01;68.74;101905.19;5052046;28;20045;-64
2023/05/28 00:27:25;;;;;;;16.63;7.15;;;;;;;15.97;68.69;101913.19;5053948;28;20543;-62
2023/05/28 00:29:53;;;;;;;15.20;7.03;;;;;;;16.01;68.87;101909.88;5044563;28;20102;-64
2023/05/28 00:32:21;;;;;;;15.50;6.47;;;;;;;16.06;68.72;101921.66;5060646;28;20052;-64
2023/05/28 00:34:48;;;;;;;16.60;7.50;;;;;;;16.08;68.59;101922.22;5071289;28;20059;-65
2023/05/28 00:37:16;;;;;;;16.40;7.22;;;;;;;16.08;68.21;101926.91;5025789;28;20045;-64
2023/05/28 00:39:44;;;;;;;18.20;7.65;;;;;;;16.00;68.70;101925.56;5067972;28;20049;-64
2023/05/28 00:42:12;;;;;;;17.30;7.38;;;;;;;15.94;69.03;101932.16;5059950;28;20108;-65
2023/05/28 00:44:41;;;;;;;17.55;7.70;;;;;;;15.90;69.63;101931.06;5062408;28;20400;-65
2023/05/28 00:47:09;;;;;;;18.33;7.28;;;;;;;15.85;69.50;101929.16;5061560;28;20045;-64
2023/05/28 00:49:37;;;;;;;22.23;7.63;;;;;;;15.85;69.39;101934.66;5053589;28;20049;-63
2023/05/28 00:52:05;;;;;;;20.10;8.23;;;;;;;15.81;69.97;101933.53;5036103;28;20397;-66
2023/05/28 00:54:34;;;;;;;18.17;7.90;;;;;;;15.79;70.05;101923.94;5002691;28;20061;-65
2023/05/28 00:57:02;;;;;;;17.98;8.20;;;;;;;15.79;70.45;101926.69;5042276;28;20049;-64
2023/05/28 00:59:33;;;;;;;16.65;7.78;;;;;;;15.75;70.22;101921.75;5059719;28;20103;-62
2023/05/28 01:02:02;;;;;;;21.98;7.95;;;;;;;15.75;70.11;101923.63;5054305;28;20052;-63
2023/05/28 01:04:32;;;;;;;14.52;7.60;;;;;;;15.70;70.45;101921.72;5055031;28;20049;-64
2023/05/28 01:07:01;;;;;;;18.25;7.88;;;;;;;15.60;70.85;101910.72;5056944;28;20049;-62
2023/05/28 01:09:29;;;;;;;14.13;7.70;;;;;;;15.50;71.57;101921.72;5055448;28;20076;-62
2023/05/28 01:11:57;;;;;;;17.45;6.47;;;;;;;15.34;72.17;101916.22;5053881;28;20512;-65
2023/05/28 01:14:25;;;;;;;16.23;7.13;;;;;;;15.26;73.16;101919.47;5054858;28;20045;-63
2023/05/28 01:16:53;;;;;;;19.30;8.07;;;;;;;15.29;72.99;101918.09;5038589;28;20119;-64
2023/05/28 01:19:27;;;;;;;17.00;7.32;;;;;;;15.25;73.25;101914.25;5018438;28;20056;-64
2023/05/28 01:22:05;;;;;;;15.20;7.03;;;;;;;15.19;73.43;101912.63;5023760;28;20049;-65
2023/05/28 01:24:35;;;;;;;15.45;6.70;;;;;;;15.19;73.64;101916.19;5034523;28;20058;-63
2023/05/28 01:27:04;;;;;;;14.57;6.43;;;;;;;15.13;73.31;101914.53;5027846;28;20076;-65
2023/05/28 01:29:32;;;;;;;13.40;6.43;;;;;;;15.06;73.72;101919.47;5020686;28;20034;-63
2023/05/28 01:32:01;;;;;;;15.13;6.18;;;;;;;14.98;74.10;101917.22;5040147;28;20045;-63
2023/05/28 01:34:30;;;;;;;13.52;7.07;;;;;;;15.00;74.39;101921.34;5054968;28;20049;-63
2023/05/28 01:37:01;;;;;;;13.00;5.85;;;;;;;15.02;73.64;101921.09;5070029;28;20056;-64
2023/05/28 01:39:36;;;;;;;15.35;7.13;;;;;;;14.99;74.00;101929.88;5076478;28;20046;-63
2023/05/28 01:42:06;;;;;;;15.32;6.38;;;;;;;15.02;73.99;101926.56;5074684;28;20041;-63
2023/05/28 01:44:34;;;;;;;13.30;6.25;;;;;;;15.05;73.77;101926.03;5036712;28;20059;-64
2023/05/28 01:47:03;;;;;;;18.42;7.47;;;;;;;15.01;73.77;101924.91;5032856;28;20072;-63
2023/05/28 01:49:30;;;;;;;14.93;6.57;;;;;;;14.97;73.66;101918.34;5053274;28;20049;-63
2023/05/28 01:51:58;;;;;;;13.18;6.43;;;;;;;14.82;74.54;101917.19;5037377;28;20385;-63
2023/05/28 01:54:26;;;;;;;21.17;7.03;;;;;;;14.82;74.50;101914.47;5052872;28;20051;-62
2023/05/28 01:56:55;;;;;;;15.45;7.30;;;;;;;14.84;74.54;101915.00;5042566;28;20045;-62
2023/05/28 01:59:22;;;;;;;15.18;5.97;;;;;;;14.79;74.56;101911.41;5054073;28;20088;-62
2023/05/28 02:01:50;;;;;;;14.60;5.60;;;;;;;14.72;74.88;101906.19;5054150;28;20044;-63
2023/05/28 02:04:18;;;;;;;14.75;6.45;;;;;;;14.68;75.26;101911.38;5020493;28;20037;-64
2023/05/28 02:06:46;;;;;;;12.80;6.20;;;;;;;14.64;75.38;101903.97;5055227;28;20056;-63
2023/05/28 02:09:14;;;;;;;14.93;6.45;;;;;;;14.57;75.94;101901.47;5054337;28;20052;-63
2023/05/28 02:11:42;;;;;;;18.08;6.20;;;;;;;14.60;75.88;101897.34;5053849;28;20045;-62
2023/05/28 02:14:14;;;;;;;14.77;6.32;;;;;;;14.63;75.56;101892.16;5036928;28;20107;-61
2023/05/28 02:16:45;;;;;;;14.80;6.70;;;;;;;14.67;75.88;101892.44;5056002;28;20049;-63
2023/05/28 02:19:13;;;;;;;15.15;6.07;;;;;;;14.61;75.95;101890.78;5037304;28;20120;-62
2023/05/28 02:21:41;;;;;;;15.50;6.65;;;;;;;14.61;76.25;101888.88;5032445;28;20057;-63
2023/05/28 02:24:09;;;;;;;14.65;6.53;;;;;;;14.59;76.30;101885.56;5036642;28;20049;-64
2023/05/28 02:26:37;;;;;;;18.30;6.90;;;;;;;14.56;76.77;101885.28;5066199;28;20048;-63
2023/05/28 02:29:05;;;;;;;13.82;5.90;;;;;;;14.44;77.29;101883.56;5073336;28;20040;-65
2023/05/28 02:31:36;;;;;;;15.75;6.30;;;;;;;14.37;78.00;101885.72;5069445;28;20103;-65
2023/05/28 02:34:04;;;;;;;13.65;6.32;;;;;;;14.42;77.85;101887.66;5053183;28;20420;-63
2023/05/28 02:36:32;;;;;;;13.90;6.32;;;;;;;14.27;78.52;101889.25;5070967;28;20086;-65
2023/05/28 02:39:00;;;;;;;13.23;6.70;;;;;;;14.26;78.62;101892.25;5040408;28;20148;-65
2023/05/28 02:41:28;;;;;;;13.60;6.13;;;;;;;14.26;79.38;101892.25;5073066;28;20059;-63
2023/05/28 02:43:57;;;;;;;15.75;5.93;;;;;;;14.34;78.84;101897.22;5053728;28;20036;-64
2023/05/28 02:46:25;;;;;;;16.40;7.15;;;;;;;14.31;78.95;101884.06;5055205;28;20103;-64
2023/05/28 02:48:53;;;;;;;18.40;6.97;;;;;;;14.30;79.15;101889.81;5052492;28;20110;-64
2023/05/28 02:51:23;;;;;;;15.70;6.78;;;;;;;14.20;79.87;101893.31;5032506;28;20079;-65
2023/05/28 02:54:17;;;;;;;15.40;6.47;;;;;;;14.18;79.95;101899.06;5047071;28;20045;-65
2023/05/28 02:56:45;;;;;;;13.60;6.15;;;;;;;14.07;80.37;101898.19;5040394;28;20404;-63
2023/05/28 02:59:13;;;;;;;16.73;6.35;;;;;;;13.97;81.40;101903.59;5073872;28;20040;-64
2023/05/28 03:01:42;;;;;;;13.10;6.50;;;;;;;13.95;81.71;101903.06;5040850;28;20079;-64
2023/05/28 03:04:10;;;;;;;14.48;5.85;;;;;;;14.00;81.66;101900.34;5062531;28;20125;-64
2023/05/28 03:06:38;;;;;;;15.55;6.28;;;;;;;14.14;81.25;101899.84;5052498;28;20470;-64
2023/05/28 03:09:06;;;;;;;16.58;6.57;;;;;;;14.17;80.87;101902.09;5072971;28;20045;-63
2023/05/28 03:11:34;;;;;;;18.70;6.85;;;;;;;14.11;81.43;101894.91;5074870;28;20074;-64
2023/05/28 03:14:01;;;;;;;14.63;6.22;;;;;;;14.07;81.71;101903.66;5068314;28;20052;-65
2023/05/28 03:16:32;;;;;;;16.90;7.00;;;;;;;13.96;82.45;101892.91;5073685;28;20074;-62
2023/05/28 03:19:00;;;;;;;15.73;6.72;;;;;;;14.00;82.31;101894.84;5063717;28;20075;-63
2023/05/28 03:21:33;;;;;;;18.15;7.30;;;;;;;14.00;82.32;101894.84;5053199;28;20099;-63
2023/05/28 03:24:01;;;;;;;14.98;6.93;;;;;;;13.98;82.86;101891.56;5037156;28;20067;-65
2023/05/28 03:26:38;;;;;;;15.32;7.07;;;;;;;13.90;83.16;101899.44;5021654;28;20045;-64
2023/05/28 03:29:06;;;;;;;13.93;6.32;;;;;;;13.89;83.77;101904.09;5034679;28;20045;-65
2023/05/28 03:31:51;;;;;;;15.13;6.70;;;;;;;13.97;83.85;101897.28;5032972;28;20053;-66
2023/05/28 03:34:21;;;;;;;13.95;7.10;;;;;;;13.98;83.67;101902.50;4992782;28;20097;-64
2023/05/28 03:36:50;;;;;;;14.63;6.68;;;;;;;13.94;84.08;101893.16;5052825;28;20417;-66
2023/05/28 03:39:18;;;;;;;15.55;5.90;;;;;;;13.90;84.24;101900.25;5035559;28;20044;-62
2023/05/28 03:41:49;;;;;;;14.02;6.85;;;;;;;13.86;84.90;101901.88;5052318;28;20520;-63
2023/05/28 03:44:17;;;;;;;20.73;7.70;;;;;;;13.86;84.96;101904.63;5020269;28;20067;-63
2023/05/28 03:46:45;;;;;;;16.15;6.80;;;;;;;13.81;85.28;101907.34;5031551;28;20049;-63
2023/05/28 03:49:13;;;;;;;16.40;6.38;;;;;;;13.75;85.96;101908.38;5027343;28;20048;-62
2023/05/28 03:51:41;;;;;;;15.88;6.18;;;;;;;13.63;86.85;101906.63;5035783;28;20052;-63
2023/05/28 03:54:10;;;;;;;14.00;6.40;;;;;;;13.78;86.96;101897.72;5052544;28;20137;-63
2023/05/28 03:56:38;;;;;;;18.92;7.55;;;;;;;13.90;86.25;101908.47;5051992;28;20127;-64
2023/05/28 03:59:06;;;;;;;13.93;6.30;;;;;;;13.96;85.54;101904.69;5052515;28;20041;-65
2023/05/28 04:01:35;;;;;;;15.73;6.63;;;;;;;13.85;86.79;101913.91;5052588;28;20075;-66
2023/05/28 04:04:05;;;;;;;16.20;6.80;;;;;;;13.73;87.73;101905.88;5023193;28;20053;-64
2023/05/28 04:06:34;;;;;;;19.40;8.02;;;;;;;13.78;88.18;101905.09;5020873;28;20056;-64
2023/05/28 04:09:01;;;;;;;19.13;7.13;;;;;;;13.76;88.11;101915.53;5054608;28;20045;-64
2023/05/28 04:11:30;;;;;;;16.33;7.18;;;;;;;13.70;88.68;101916.56;5055136;28;20057;-64
2023/05/28 04:13:58;;;;;;;18.60;7.28;;;;;;;13.72;88.89;101919.88;5035522;28;20048;-65
2023/05/28 04:16:26;;;;;;;16.98;7.00;;;;;;;13.66;89.48;101923.63;5070543;28;20120;-64
2023/05/28 04:18:54;;;;;;;15.68;6.90;;;;;;;13.60;90.78;101922.78;5052324;28;20501;-66
2023/05/28 04:21:22;;;;;;;16.13;7.13;;;;;;;13.57;91.13;101924.13;5037517;28;20049;-66
2023/05/28 04:23:51;;;;;;;23.38;8.00;;;;;;;13.59;91.71;101915.66;5055887;28;20057;-64
2023/05/28 04:26:21;;;;;;;20.17;8.07;;;;;;;13.47;92.55;101935.00;5038895;28;20055;-65
2023/05/28 04:28:52;;;;;;;19.05;7.95;;;;;;;13.35;93.88;101926.13;5052760;28;20044;-66
2023/05/28 04:31:20;;;;;;;18.48;8.15;;;;;;;13.49;93.96;101927.31;5036559;28;20053;-63
2023/05/28 04:33:49;;;;;;;20.05;7.82;;;;;;;13.50;94.04;101929.00;5043674;28;20374;-65
2023/05/28 04:36:18;;;;;;;17.48;7.40;;;;;;;13.46;94.76;101930.59;5041786;28;20049;-64
2023/05/28 04:38:46;;;;;;;15.38;6.68;;;;;;;13.46;94.50;101933.34;5060074;28;20101;-63
2023/05/28 04:41:14;;;;;;;13.60;6.28;;;;;;;13.50;94.62;101936.38;5060713;28;20103;-62
2023/05/28 04:43:42;;;;;;;17.73;6.90;;;;;;;13.55;94.89;101939.16;5060772;28;20481;-64
2023/05/28 04:46:11;;;;;;;17.65;7.38;;;;;;;13.42;96.13;101934.94;5075576;28;20102;-64
2023/05/28 04:48:39;;;;;;;17.35;6.75;;;;;;;13.47;96.11;101935.00;5061941;28;20180;-64
2023/05/28 04:51:07;;;;;;;21.10;7.45;;;;;;;13.52;95.90;101940.53;5043894;28;20405;-62
2023/05/28 04:53:35;;;;;;;19.08;7.57;;;;;;;13.48;96.68;101941.28;5042390;28;20459;-65
2023/05/28 04:56:03;;;;;;;18.90;8.00;;;;;;;13.53;96.22;101942.16;5037806;28;20063;-64
2023/05/28 04:58:32;;;;;;;18.63;8.52;;;;;;;13.56;96.75;101943.53;5050170;28;20048;-64
2023/05/28 05:01:00;;;;;;;18.85;7.55;;;;;;;13.63;95.96;101939.50;5055203;28;20053;-63
2023/05/28 05:03:31;;;;;;;19.00;8.20;;;;;;;13.71;95.86;101942.84;5038733;28;20052;-63
2023/05/28 05:06:00;;;;;;;23.00;9.27;;;;;;;13.76;95.78;101940.16;5041387;28;20033;-62
2023/05/28 05:08:29;;;;;;;18.33;7.75;;;;;;;13.70;95.97;101935.72;5053771;28;20396;-66
2023/05/28 05:10:57;;;;;;;20.30;8.07;;;;;;;13.59;97.17;101937.56;5038001;28;20097;-65
2023/05/28 05:13:25;;;;;;;19.92;8.88;;;;;;;13.62;97.56;101940.59;5060293;28;20417;-65
2023/05/28 05:15:53;;;;;;;22.05;8.25;;;;;;;13.66;97.19;101938.16;5039495;28;20049;-64
2023/05/28 05:18:21;;;;;;;22.48;9.15;;;;;;;13.76;96.55;101942.91;5028842;28;20120;-65
2023/05/28 05:20:49;;;;;;;20.83;8.15;;;;;;;13.76;96.83;101942.91;5037814;28;20400;-64
2023/05/28 05:23:17;;;;;;;20.80;8.43;;;;;;;13.76;97.08;101935.50;5056837;28;20049;-65
2023/05/28 05:25:48;;;;;;;22.05;8.65;;;;;;;13.78;97.03;101938.81;5025562;28;20053;-65
2023/05/28 05:28:17;;;;;;;17.45;8.65;;;;;;;13.83;96.88;101947.06;5050777;28;20124;-65
2023/05/28 05:30:45;;;;;;;21.42;8.30;;;;;;;13.88;97.06;101943.56;5034203;28;20071;-65
2023/05/28 05:33:12;;;;;;;19.77;8.90;;;;;;;13.93;96.53;101949.06;5018196;28;20045;-64
2023/05/28 05:36:10;;;;;;;20.30;8.48;;;;;;;13.99;96.73;101950.72;5018387;28;20053;-64
2023/05/28 05:39:01;;;;;;;22.35;8.73;;;;;;;14.04;95.94;101956.25;5033656;28;20575;-64
2023/05/28 05:41:59;;;;;;;20.02;8.43;;;;;;;14.01;96.63;101962.25;5033711;28;20651;-65
2023/05/28 05:44:30;;;;;;;22.42;8.88;;;;;;;13.97;97.19;101955.66;5048569;28;20559;-66
2023/05/28 05:46:59;;;;;;;24.65;8.93;;;;;;;14.04;97.62;101955.44;5060241;28;20040;-66
2023/05/28 05:49:27;;;;;;;22.63;8.45;;;;;;;14.16;96.87;101953.31;5053733;28;20513;-64
2023/05/28 05:51:55;;;;;;;22.98;8.85;;;;;;;14.26;96.55;101953.41;5052963;28;20574;-66
2023/05/28 05:54:23;;;;;;;22.83;8.55;;;;;;;14.36;96.19;101952.63;5062712;28;20036;-67
2023/05/28 05:56:52;;;;;;;22.70;8.50;;;;;;;14.42;94.62;101956.22;5033600;28;20486;-67
2023/05/28 05:59:21;;;;;;;19.17;8.07;;;;;;;14.49;95.07;101957.63;5021565;28;20045;-66
2023/05/28 06:01:49;;;;;;;21.45;8.32;;;;;;;14.53;94.37;101959.81;5053383;28;20045;-65
2023/05/28 06:04:17;;;;;;;21.73;8.88;;;;;;;14.62;93.64;101950.03;5001402;28;20096;-67
2023/05/28 06:07:04;;;;;;;19.70;7.78;;;;;;;14.73;92.71;101954.47;5053548;28;20426;-65
2023/05/28 06:09:51;;;;;;;19.85;8.25;;;;;;;14.84;91.79;101947.94;5054103;28;20076;-66
2023/05/28 06:12:23;;;;;;;19.52;7.93;;;;;;;14.91;91.36;101953.16;5050361;28;20125;-66
2023/05/28 06:14:51;;;;;;;19.55;7.40;;;;;;;14.96;90.21;101944.13;5036325;28;20052;-65
2023/05/28 06:17:20;;;;;;;20.33;8.40;;;;;;;15.01;90.04;101949.63;5027305;28;20044;-67
2023/05/28 06:19:49;;;;;;;18.08;8.30;;;;;;;15.10;89.89;101956.22;5033719;28;20060;-65
2023/05/28 06:22:18;;;;;;;19.02;8.13;;;;;;;15.19;89.08;101946.38;5002672;28;20106;-64
2023/05/28 06:24:49;;;;;;;20.73;8.00;;;;;;;15.30;87.76;101949.97;5065083;28;20052;-65
2023/05/28 06:27:17;;;;;;;17.58;7.30;;;;;;;15.40;86.84;101951.91;5057028;28;20055;-64
2023/05/28 06:29:46;;;;;;;15.73;6.45;;;;;;;15.45;86.68;101940.94;5054426;28;20098;-66
2023/05/28 06:32:14;;;;;;;20.25;7.40;;;;;;;15.51;87.86;101951.66;5036988;28;20488;-65
2023/05/28 06:34:43;;;;;;;20.08;7.47;;;;;;;15.60;86.66;101940.94;5054380;28;20095;-66
2023/05/28 06:37:11;;;;;;;18.00;7.35;;;;;;;15.68;86.03;101945.03;5052812;28;20041;-66
2023/05/28 06:39:40;;;;;;;15.82;6.68;;;;;;;15.74;84.92;101950.31;5032410;28;20052;-65
2023/05/28 06:42:08;;;;;;;20.90;7.43;;;;;;;15.79;85.28;101941.22;5038292;28;20049;-66
2023/05/28 06:45:08;;;;;;;17.17;7.03;;;;;;;15.85;83.45;101942.03;5044457;28;20068;-65
2023/05/28 06:47:36;;;;;;;18.15;7.55;;;;;;;15.88;81.23;101944.25;5053282;28;20053;-65
2023/05/28 06:50:04;;;;;;;15.52;6.65;;;;;;;15.89;80.41;101935.72;5051372;28;20044;-66
2023/05/28 06:52:32;;;;;;;18.23;8.18;;;;;;;15.93;79.79;101947.00;5053664;28;20128;-66
2023/05/28 06:55:00;;;;;;;18.40;7.03;;;;;;;16.00;78.82;101949.47;5049741;28;20549;-65
2023/05/28 06:57:36;;;;;;;16.30;7.32;;;;;;;16.04;78.17;101948.63;5022614;28;20040;-65
2023/05/28 07:00:25;;;;;;;19.95;7.53;;;;;;;16.09;76.89;101951.38;5037983;28;20041;-66
2023/05/28 07:03:05;;;;;;;18.73;7.68;;;;;;;16.13;77.03;101944.19;5044654;28;20053;-65
2023/05/28 07:05:52;;;;;;;20.63;7.15;;;;;;;16.15;77.63;101950.25;5052675;28;20051;-66
2023/05/28 07:08:20;;;;;;;21.95;7.45;;;;;;;16.27;77.74;101947.22;5033533;28;20049;-66
2023/05/28 07:10:48;;;;;;;17.10;6.60;;;;;;;16.37;75.76;101949.91;5032999;28;20049;-66
2023/05/28 07:13:16;;;;;;;20.90;6.95;;;;;;;16.36;75.43;101941.97;5050367;28;20453;-66
2023/05/28 07:15:44;;;;;;;21.00;7.70;;;;;;;16.37;75.36;101940.84;5050876;28;20044;-64
2023/05/28 07:18:12;;;;;;;21.90;7.38;;;;;;;16.43;75.00;101950.75;5034657;28;20487;-65
2023/05/28 07:20:40;;;;;;;18.20;6.95;;;;;;;16.45;75.27;101954.06;5036344;28;20056;-65
2023/05/28 07:23:14;;;;;;;22.90;6.93;;;;;;;16.49;75.21;101963.38;5058664;28;20512;-65
2023/05/28 07:25:42;;;;;;;17.77;6.72;;;;;;;16.56;75.07;101966.66;5077378;28;20076;-65
2023/05/28 07:28:10;;;;;;;18.23;6.70;;;;;;;16.59;75.68;101960.56;5040784;28;20059;-62
2023/05/28 07:30:38;;;;;;;18.67;6.80;;;;;;;16.60;76.94;101966.94;5056080;28;20051;-65
2023/05/28 07:33:07;;;;;;;15.40;6.50;;;;;;;16.65;76.85;101966.09;5072717;28;20052;-64
2023/05/28 07:35:36;;;;;;;18.92;6.93;;;;;;;16.72;77.15;101969.38;5038528;28;20478;-65
2023/05/28 07:38:04;;;;;;;18.95;7.07;;;;;;;16.73;77.61;101965.50;5051459;28;20045;-64
2023/05/28 07:40:32;;;;;;;19.98;6.85;;;;;;;16.79;78.91;101964.41;5053257;28;20462;-64
2023/05/28 07:43:18;;;;;;;20.73;6.90;;;;;;;16.85;76.91;101971.53;5051861;28;20056;-65
2023/05/28 07:45:45;;;;;;;19.25;6.47;;;;;;;16.90;75.56;101970.69;5053169;28;20045;-63
2023/05/28 07:48:15;;;;;;;14.93;6.20;;;;;;;16.92;74.33;101965.72;5051688;28;20593;-65
2023/05/28 07:51:15;;;;;;;18.58;6.90;;;;;;;16.85;74.02;101968.78;5042076;28;20048;-65
2023/05/28 07:53:46;;;;;;;15.52;6.32;;;;;;;16.82;74.01;101970.16;5060251;28;20045;-64
2023/05/28 07:56:22;;;;;;;18.83;6.72;;;;;;;16.80;75.79;101979.81;5072265;28;20041;-67
2023/05/28 07:58:51;;;;;;;19.30;8.27;;;;;;;16.73;81.04;101979.25;5023648;28;20070;-66
2023/05/28 08:01:20;;;;;;;19.75;8.50;;;;;;;16.65;83.82;101979.84;5055900;28;20071;-63
2023/05/28 08:03:50;;;;;;;20.75;8.75;;;;;;;16.55;85.60;101975.19;5053555;28;20036;-65
2023/05/28 08:06:22;;;;;;;25.73;9.38;;;;;;;16.49;86.04;101971.63;5071907;28;20118;-66
2023/05/28 08:08:49;;;;;;;21.60;9.18;;;;;;;16.48;86.58;101981.00;5055479;28;20497;-66
2023/05/28 08:11:21;;;;;;;20.48;8.35;;;;;;;16.52;86.58;101976.56;5055702;28;20049;-66
2023/05/28 08:13:49;;;;;;;23.35;8.30;;;;;;;16.59;85.92;101971.59;5053314;28;20091;-65
2023/05/28 08:16:18;;;;;;;23.05;8.90;;;;;;;16.70;84.58;101969.63;5055248;28;20093;-65
2023/05/28 08:19:05;;;;;;;19.45;7.88;;;;;;;16.80;83.96;101971.56;5071863;28;20119;-65
2023/05/28 08:21:35;;;;;;;15.45;7.20;;;;;;;16.85;82.22;101982.53;5072076;28;20401;-64
2023/05/28 08:24:10;;;;;;;19.10;7.78;;;;;;;16.98;80.66;101972.81;5055116;28;20060;-66
2023/05/28 08:26:40;;;;;;;21.58;8.50;;;;;;;17.10;79.24;101972.50;5072590;28;20101;-65
2023/05/28 08:29:08;;;;;;;19.10;7.15;;;;;;;17.16;78.52;101957.59;5072923;28;20400;-64
2023/05/28 08:31:40;;;;;;;16.88;6.95;;;;;;;17.26;74.15;101963.03;5039915;28;20079;-65
2023/05/28 08:34:36;;;;;;;17.20;5.93;;;;;;;17.36;71.35;101962.97;5061711;28;20145;-65
2023/05/28 08:37:06;;;;;;;17.77;5.88;;;;;;;17.53;69.22;101965.31;5069864;28;20056;-66
2023/05/28 08:39:48;;;;;;;19.63;6.38;;;;;;;17.63;67.17;101968.03;5034848;28;20051;-65
2023/05/28 08:42:15;;;;;;;12.95;5.00;;;;;;;17.68;67.16;101964.41;5054565;28;20056;-64
2023/05/28 08:44:43;;;;;;;19.25;6.70;;;;;;;17.76;66.09;101971.22;5039994;28;20045;-64
2023/05/28 08:47:13;;;;;;;18.63;6.60;;;;;;;17.82;64.87;101976.44;5053888;28;20057;-64
2023/05/28 08:49:53;;;;;;;18.73;5.72;;;;;;;17.86;62.96;101966.47;5044292;28;20049;-66
2023/05/28 08:52:27;;;;;;;17.67;6.00;;;;;;;17.82;63.41;101979.22;5049700;28;20060;-66
2023/05/28 08:54:57;;;;;;;16.13;6.00;;;;;;;17.81;64.18;101969.28;5048918;28;20057;-65
2023/05/28 08:57:28;;;;;;;17.15;6.03;;;;;;;17.84;64.85;101967.88;5035459;28;20107;-65
2023/05/28 09:00:00;;;;;;;17.60;6.18;;;;;;;17.95;64.72;101957.59;5020010;28;20049;-65
2023/05/28 09:02:29;;;;;;;17.73;6.97;;;;;;;17.98;64.32;101957.00;4987409;28;20061;-65
2023/05/28 09:04:58;;;;;;;14.02;5.70;;;;;;;18.04;64.77;101955.84;5028715;28;20076;-66
2023/05/28 09:07:29;;;;;;;15.27;6.38;;;;;;;18.13;64.33;101945.81;5035303;28;20511;-65
2023/05/28 09:10:01;;;;;;;14.50;5.10;;;;;;;18.15;63.11;101942.75;5034866;28;20091;-65
2023/05/28 09:12:32;;;;;;;13.05;5.68;;;;;;;18.19;62.36;101950.16;5035249;28;20069;-65
2023/05/28 09:15:04;;;;;;;16.08;5.90;;;;;;;18.22;62.93;101943.25;5055843;28;20101;-64
2023/05/28 09:17:33;;;;;;;17.50;5.78;;;;;;;18.28;62.38;101948.41;5054390;28;20393;-65
2023/05/28 09:20:14;;;;;;;15.98;5.93;;;;;;;18.30;63.28;101943.44;5038829;28;20084;-66
2023/05/28 09:22:43;;;;;;;15.52;5.57;;;;;;;18.35;62.34;101938.94;5038581;28;20060;-64
2023/05/28 09:25:36;;;;;;;18.63;6.13;;;;;;;18.50;60.75;101944.31;5034830;28;20057;-65
2023/05/28 09:28:15;;;;;;;15.30;5.35;;;;;;;18.51;61.29;101938.47;5037021;28;20112;-65
2023/05/28 09:30:43;;;;;;;17.27;6.15;;;;;;;18.55;61.69;101935.97;5035996;28;20199;-65
2023/05/28 09:33:11;;;;;;;15.30;6.05;;;;;;;18.58;61.51;101927.09;5045786;28;20051;-64
2023/05/28 09:35:39;;;;;;;17.50;5.43;;;;;;;18.66;59.48;101928.38;5076138;28;20106;-65
2023/05/28 09:38:08;;;;;;;14.48;6.10;;;;;;;18.64;59.01;101925.91;5057597;28;20060;-65
2023/05/28 09:40:41;;;;;;;19.67;6.93;;;;;;;18.61;59.67;101929.25;5075027;28;20110;-65
2023/05/28 09:43:10;;;;;;;16.27;5.60;;;;;;;18.63;59.21;101929.78;5073280;28;20476;-66
2023/05/28 09:45:38;;;;;;;15.50;5.32;;;;;;;18.75;57.69;101934.88;5035466;28;20051;-65
2023/05/28 09:48:06;;;;;;;11.18;5.00;;;;;;;18.84;57.14;101935.09;5034741;28;20050;-64
2023/05/28 09:50:34;;;;;;;15.02;4.82;;;;;;;18.88;56.53;101931.44;5036074;28;20125;-65
2023/05/28 09:53:04;;;;;;;14.98;5.60;;;;;;;18.96;57.01;101942.94;5045016;28;20083;-65
2023/05/28 09:55:33;;;;;;;12.75;5.53;;;;;;;19.00;55.83;101928.22;5057908;28;20048;-65
2023/05/28 09:58:03;;;;;;;15.25;5.50;;;;;;;19.00;55.28;101922.72;5074012;28;20045;-66
2023/05/28 10:00:47;;;;;;;14.27;5.38;;;;;;;19.08;54.81;101924.78;5073400;28;20049;-64
2023/05/28 10:03:25;;;;;;;14.95;5.13;;;;;;;19.13;54.49;101927.47;5071179;28;20080;-64
2023/05/28 10:06:01;;;;;;;14.38;5.50;;;;;;;19.28;53.97;101933.88;5055295;28;20132;-64
2023/05/28 10:08:30;;;;;;;14.80;5.43;;;;;;;19.30;53.62;101921.41;5037172;28;20448;-64
2023/05/28 10:10:57;;;;;;;14.07;5.15;;;;;;;19.33;53.63;101933.81;5055068;28;20440;-63
2023/05/28 10:13:26;;;;;;;13.90;5.18;;;;;;;19.30;53.94;101931.66;5047209;28;20064;-64
2023/05/28 10:15:54;;;;;;;16.08;6.20;;;;;;;19.29;53.38;101927.22;5073746;28;20076;-65
2023/05/28 10:18:24;;;;;;;13.38;5.00;;;;;;;19.24;54.13;101922.63;5058062;28;20044;-65
2023/05/28 10:20:52;;;;;;;15.65;5.57;;;;;;;19.26;53.55;101934.19;5074557;28;20409;-63
2023/05/28 10:23:21;;;;;;;15.45;4.80;;;;;;;19.28;53.66;101940.22;5069311;28;20064;-65
2023/05/28 10:25:49;;;;;;;13.75;5.28;;;;;;;19.29;54.27;101935.53;5056232;28;20056;-64
2023/05/28 10:28:21;;;;;;;14.50;5.05;;;;;;;19.33;54.41;101931.84;5057655;28;20048;-66
2023/05/28 10:31:10;;;;;;;15.05;5.82;;;;;;;19.37;53.87;101934.84;5054687;28;20051;-66
2023/05/28 10:33:42;;;;;;;16.92;5.47;;;;;;;19.39;52.83;101929.03;5022917;28;20103;-65
2023/05/28 10:36:12;;;;;;;14.07;5.38;;;;;;;19.45;52.91;101931.41;5033395;28;20053;-65
2023/05/28 10:38:52;;;;;;;15.18;5.38;;;;;;;19.46;53.69;101934.97;5034555;28;20060;-65
2023/05/28 10:41:21;;;;;;;15.13;5.03;;;;;;;19.51;52.28;101935.72;5033257;28;20045;-64
2023/05/28 10:43:50;;;;;;;16.55;5.50;;;;;;;19.54;51.46;101935.13;5047924;28;20048;-65
2023/05/28 10:46:35;;;;;;;11.32;4.63;;;;;;;19.52;52.03;101933.78;5053300;28;20055;-65
2023/05/28 10:49:13;;;;;;;14.45;5.40;;;;;;;19.51;52.59;101937.69;5052887;28;20485;-67
2023/05/28 10:52:00;;;;;;;13.98;4.97;;;;;;;19.50;53.49;101936.84;5053635;28;20051;-68
2023/05/28 10:54:46;;;;;;;30.35;5.85;;;;;;;19.51;53.90;101932.16;5054056;28;20106;-64
2023/05/28 10:57:15;;;;;;;17.35;5.65;;;;;;;19.55;54.99;101941.47;5054010;28;20103;-64
2023/05/28 10:59:47;;;;;;;13.18;5.20;;;;;;;19.58;54.35;101932.59;5036673;28;20551;-65
2023/05/28 11:02:21;;;;;;;20.25;5.78;;;;;;;19.68;54.49;101934.41;5055320;28;20053;-65
2023/05/28 11:04:55;;;;;;;14.90;5.32;;;;;;;19.67;55.05;101941.00;5069640;28;20107;-66
2023/05/28 11:07:29;;;;;;;14.35;5.57;;;;;;;19.69;54.23;101939.59;5053102;28;20049;-64
2023/05/28 11:09:58;;;;;;;14.63;5.18;;;;;;;19.66;53.25;101933.84;5053681;28;20215;-65
2023/05/28 11:12:30;;;;;;;12.30;4.78;;;;;;;19.66;53.82;101933.84;5055148;28;20044;-67
2023/05/28 11:14:58;;;;;;;13.73;4.57;;;;;;;19.63;53.10;101928.94;5054060;28;20068;-66
2023/05/28 11:17:26;;;;;;;17.08;6.05;;;;;;;19.69;53.16;101927.72;5053915;28;20060;-66
2023/05/28 11:19:53;;;;;;;12.15;5.25;;;;;;;19.73;53.04;101931.53;5052791;28;20047;-64
2023/05/28 11:22:21;;;;;;;15.85;5.30;;;;;;;19.70;53.36;101927.44;5054775;28;20400;-65
2023/05/28 11:25:00;;;;;;;20.90;5.57;;;;;;;19.74;53.77;101924.88;5036332;28;20053;-66
2023/05/28 11:27:30;;;;;;;11.77;5.25;;;;;;;19.83;54.66;101925.00;5036968;28;20041;-64
2023/05/28 11:30:00;;;;;;;18.52;6.13;;;;;;;19.89;54.53;101932.91;5054544;28;20140;-65
2023/05/28 11:32:33;;;;;;;22.35;5.72;;;;;;;19.92;54.44;101915.69;5048317;28;20049;-65